Emmett, Idaho
Current Conditions -  °F | °C
As of 12:15 PM on Tuesday 27 Jan 2015 (Local Time) from KEUL Reporting Station
Overcast Overcast  
Wind Chill: 34°   Ceiling: 200
Heat Index: 34°   Visibility: 1mi
Dew Point: 28°   Wind: 0mph
Humidity: 81%   Direction: NA
Pressure: 30.15"   Gusts: NA
Location:  43.87°N, 116.5°W
Report Text: KEUL 271915Z AUTO 00000KT 1SM OVC002 01/M02 A3015 RMK AO1
Loading
Personal Weather Stations






























Interactive Weather Map New forecast layout! Learn more

10-Day Weather Forecast

Advertisements
Track Severe Weather on mobile